createdAt,value
2022-10-09T00:01:12.590Z,4.25
2022-10-09T00:06:18.074Z,4.40
2022-10-09T00:11:26.274Z,4.55
2022-10-09T00:16:28.754Z,3.85
2022-10-09T00:21:34.443Z,3.60
2022-10-09T00:26:36.915Z,3.60
2022-10-09T00:37:10.705Z,4.05
2022-10-09T00:42:13.798Z,3.85
2022-10-09T00:47:42.093Z,4.10
2022-10-09T00:52:44.962Z,3.50
2022-10-09T00:57:47.768Z,3.67
2022-10-09T01:02:50.244Z,3.70
2022-10-09T01:07:58.879Z,3.85
2022-10-09T01:13:20.119Z,3.85
2022-10-09T01:18:25.007Z,4.07
2022-10-09T01:23:51.587Z,4.07
2022-10-09T01:34:00.095Z,3.95
2022-10-09T01:39:04.476Z,4.50
2022-10-09T01:44:32.343Z,4.80
2022-10-09T01:49:55.215Z,4.57
2022-10-09T01:55:22.183Z,3.88
2022-10-09T02:00:24.995Z,4.22
2022-10-09T02:05:29.381Z,4.45
2022-10-09T02:10:33.300Z,4.18
2022-10-09T02:15:39.693Z,4.50
2022-10-09T02:20:51.781Z,4.95
2022-10-09T02:25:54.379Z,4.65
2022-10-09T02:31:04.678Z,4.38
2022-10-09T02:36:07.123Z,4.22
2022-10-09T02:41:09.698Z,4.80
2022-10-09T02:46:12.098Z,4.40
2022-10-09T02:51:14.614Z,4.60
2022-10-09T02:56:16.954Z,4.15
2022-10-09T03:01:19.783Z,4.60
2022-10-09T03:06:24.389Z,5.38
2022-10-09T03:11:27.240Z,4.65
2022-10-09T03:16:29.741Z,5.10
2022-10-09T03:21:32.098Z,4.50
2022-10-09T03:26:34.558Z,4.50
2022-10-09T03:31:51.994Z,4.47
2022-10-09T03:36:55.300Z,4.70
2022-10-09T03:41:57.622Z,5.43
2022-10-09T03:47:00.096Z,4.70
2022-10-09T03:52:02.518Z,5.38
2022-10-09T03:57:04.898Z,5.47
2022-10-09T04:02:07.279Z,4.55
2022-10-09T04:07:09.633Z,5.68
2022-10-09T04:12:11.962Z,6.28
2022-10-09T04:17:14.297Z,4.90
2022-10-09T04:22:16.627Z,6.65
2022-10-09T04:27:19.027Z,5.50
2022-10-09T04:32:21.458Z,6.20
2022-10-09T04:37:23.795Z,6.20
2022-10-09T04:42:26.167Z,6.13
2022-10-09T04:47:28.556Z,6.15
2022-10-09T04:52:30.889Z,6.10
2022-10-09T04:57:33.217Z,5.32
2022-10-09T05:02:35.689Z,6.00
2022-10-09T05:07:38.683Z,4.72
2022-10-09T05:12:41.031Z,5.05
2022-10-09T05:17:43.436Z,5.30
2022-10-09T05:22:47.277Z,4.43
2022-10-09T05:27:49.777Z,5.90
2022-10-09T05:32:52.307Z,6.38
2022-10-09T05:37:54.815Z,5.72
2022-10-09T05:42:57.240Z,10.95
2022-10-09T05:47:59.761Z,5.75
2022-10-09T05:53:02.366Z,5.30
2022-10-09T05:58:04.961Z,4.18
2022-10-09T06:03:07.414Z,4.78
2022-10-09T06:08:09.767Z,4.65
2022-10-09T06:13:12.096Z,4.70
2022-10-09T06:18:14.563Z,5.05
2022-10-09T06:23:16.907Z,3.97
2022-10-09T06:28:19.530Z,4.05
2022-10-09T06:33:21.994Z,3.70
2022-10-09T06:38:24.697Z,4.35
2022-10-09T06:43:27.097Z,3.58
2022-10-09T06:48:31.270Z,3.38
2022-10-09T06:53:38.099Z,3.88
2022-10-09T06:58:41.181Z,2.53
2022-10-09T07:03:45.595Z,3.10
2022-10-09T07:08:55.227Z,4.18
2022-10-09T07:13:59.902Z,3.58
2022-10-09T07:19:03.991Z,3.15
2022-10-09T07:24:07.019Z,3.67
2022-10-09T07:29:11.095Z,4.55
2022-10-09T07:34:13.703Z,2.90
2022-10-09T07:39:19.311Z,2.55
2022-10-09T07:44:21.669Z,2.88
2022-10-09T07:49:24.054Z,2.72
2022-10-09T07:54:26.755Z,2.53
2022-10-09T07:59:29.128Z,2.70
2022-10-09T08:04:31.514Z,2.00
2022-10-09T08:09:33.912Z,2.10
2022-10-09T08:14:36.273Z,2.42
2022-10-09T08:19:38.653Z,1.75
2022-10-09T08:24:41.036Z,1.73
2022-10-09T08:29:43.431Z,2.45
2022-10-09T08:34:47.138Z,2.03
2022-10-09T08:39:49.561Z,2.60
2022-10-09T08:44:52.015Z,2.38
2022-10-09T08:49:59.744Z,1.70
2022-10-09T08:55:09.112Z,2.20
2022-10-09T09:00:19.832Z,2.25
2022-10-09T09:05:25.014Z,1.27
2022-10-09T09:10:43.725Z,1.90
2022-10-09T09:16:01.425Z,1.85
2022-10-09T09:21:17.632Z,2.10
2022-10-09T09:26:21.547Z,1.67
2022-10-09T09:31:26.914Z,1.50
2022-10-09T09:36:34.345Z,2.03
2022-10-09T09:41:36.753Z,1.90
2022-10-09T09:46:39.991Z,1.70
2022-10-09T09:51:42.318Z,1.48
2022-10-09T09:57:10.861Z,1.30
2022-10-09T10:02:15.769Z,1.63
2022-10-09T10:07:30.283Z,1.60
2022-10-09T10:12:32.758Z,1.50
2022-10-09T10:17:36.081Z,1.20
2022-10-09T10:22:38.503Z,1.48
2022-10-09T10:27:42.673Z,1.17
2022-10-09T10:33:04.302Z,1.10
2022-10-09T10:38:20.602Z,1.50
2022-10-09T10:43:45.849Z,1.50
2022-10-09T10:48:48.700Z,1.60
2022-10-09T10:54:06.393Z,1.23
2022-10-09T10:59:08.667Z,1.30
2022-10-09T11:04:26.173Z,1.00
2022-10-09T11:10:23.489Z,1.35
2022-10-09T11:15:30.997Z,1.05
2022-10-09T11:20:45.822Z,1.45
2022-10-09T11:25:56.879Z,1.10
2022-10-09T11:31:12.957Z,3.05
2022-10-09T11:36:27.282Z,7.40
2022-10-09T11:41:30.697Z,1.80
2022-10-09T11:46:54.616Z,1.33
2022-10-09T11:52:29.418Z,1.83
2022-10-09T11:57:33.658Z,1.38
2022-10-09T12:02:37.296Z,1.95
2022-10-09T12:07:40.091Z,4.80
2022-10-09T12:12:42.888Z,1.77
2022-10-09T12:17:50.145Z,1.20
2022-10-09T12:23:24.675Z,1.42
2022-10-09T12:28:28.071Z,1.40
2022-10-09T12:33:44.588Z,0.70
2022-10-09T12:38:47.013Z,0.90
2022-10-09T12:43:53.998Z,1.25
2022-10-09T12:48:56.479Z,1.10
2022-10-09T12:53:58.894Z,0.98
2022-10-09T12:59:02.379Z,1.00
2022-10-09T13:04:06.426Z,0.80
2022-10-09T13:09:09.855Z,0.75
2022-10-09T13:14:53.714Z,1.00
2022-10-09T13:19:58.683Z,1.02
2022-10-09T13:25:01.167Z,1.00
2022-10-09T13:30:03.903Z,0.50
2022-10-09T13:35:06.423Z,0.68
2022-10-09T13:40:15.553Z,0.60
2022-10-09T13:45:18.024Z,0.80
2022-10-09T13:50:20.511Z,0.63
2022-10-09T13:55:22.829Z,0.70
2022-10-09T14:00:25.599Z,1.10
2022-10-09T14:05:27.982Z,0.93
2022-10-09T14:10:30.387Z,0.90
2022-10-09T14:15:32.696Z,3.20
2022-10-09T14:20:35.620Z,1.58
2022-10-09T14:25:38.131Z,1.70
2022-10-09T14:30:42.005Z,1.50
2022-10-09T14:35:44.420Z,1.10
2022-10-09T14:40:46.947Z,1.30
2022-10-09T14:45:49.347Z,1.40
2022-10-09T14:50:51.655Z,1.52
2022-10-09T14:55:54.091Z,2.38
2022-10-09T15:00:56.680Z,1.80
2022-10-09T15:06:00.615Z,1.70
2022-10-09T15:11:03.730Z,2.17
2022-10-09T15:16:14.692Z,2.60
2022-10-09T15:21:22.946Z,2.30
2022-10-09T15:26:26.522Z,1.60
2022-10-09T15:31:31.328Z,2.15
2022-10-09T15:36:39.754Z,2.40
2022-10-09T15:41:43.529Z,3.25
2022-10-09T15:46:46.822Z,2.63
2022-10-09T15:51:49.279Z,2.13
2022-10-09T15:56:51.744Z,1.75
2022-10-09T16:01:54.171Z,2.55
2022-10-09T16:06:58.179Z,3.65
2022-10-09T16:12:00.980Z,10.15
2022-10-09T16:17:04.695Z,9.18
2022-10-09T16:22:08.961Z,5.50
2022-10-09T16:27:11.370Z,8.85
2022-10-09T16:32:13.781Z,9.20
2022-10-09T16:37:16.410Z,13.07
2022-10-09T16:42:18.790Z,18.77
2022-10-09T16:47:21.191Z,11.95
2022-10-09T16:52:23.554Z,9.55
2022-10-09T16:57:25.914Z,14.07
2022-10-09T17:02:28.849Z,18.55
2022-10-09T17:07:31.266Z,18.77
2022-10-09T17:12:33.578Z,15.48
2022-10-09T17:17:36.037Z,8.05
2022-10-09T17:22:38.391Z,7.68
2022-10-09T17:27:40.814Z,6.68
2022-10-09T17:32:43.154Z,11.10
2022-10-09T17:37:45.559Z,13.60
2022-10-09T17:42:48.234Z,25.65
2022-10-09T17:47:51.362Z,57.15
2022-10-09T17:52:55.008Z,54.03
2022-10-09T17:57:57.911Z,86.28
2022-10-09T18:03:00.297Z,142.43
2022-10-09T18:08:02.763Z,77.65
2022-10-09T18:13:06.578Z,45.08
2022-10-09T18:18:09.896Z,29.10
2022-10-09T18:23:12.275Z,19.77
2022-10-09T18:28:15.396Z,15.55
2022-10-09T18:33:17.830Z,12.55
2022-10-09T18:38:20.168Z,9.40
2022-10-09T18:43:22.549Z,8.48
2022-10-09T18:48:25.169Z,7.47
2022-10-09T18:53:27.809Z,7.45
2022-10-09T18:58:30.234Z,7.53
2022-10-09T19:03:32.630Z,8.52
2022-10-09T19:08:35.603Z,9.38
2022-10-09T19:13:38.179Z,9.25
2022-10-09T19:18:40.734Z,9.88
2022-10-09T19:23:44.037Z,11.18
2022-10-09T19:28:46.677Z,11.38
2022-10-09T19:33:49.044Z,11.88
2022-10-09T19:38:51.402Z,11.23
2022-10-09T19:43:53.965Z,10.13
2022-10-09T19:48:56.469Z,11.23
2022-10-09T19:53:59.206Z,13.40
2022-10-09T19:59:03.112Z,18.05
2022-10-09T20:04:08.255Z,21.58
2022-10-09T20:09:12.404Z,27.30
2022-10-09T20:14:14.753Z,25.80
2022-10-09T20:19:18.322Z,20.33
2022-10-09T20:24:20.642Z,15.80
2022-10-09T20:29:23.073Z,13.07
2022-10-09T20:34:27.094Z,12.23
2022-10-09T20:39:29.486Z,11.93
2022-10-09T20:44:31.833Z,11.80
2022-10-09T20:49:34.608Z,12.20
2022-10-09T20:54:37.009Z,11.18
2022-10-09T20:59:39.443Z,11.18
2022-10-09T21:04:41.847Z,12.40
2022-10-09T21:09:44.358Z,10.68
2022-10-09T21:14:46.777Z,11.18
2022-10-09T21:20:00.582Z,10.82
2022-10-09T21:25:02.958Z,10.77
2022-10-09T21:30:05.806Z,12.57
2022-10-09T21:35:08.403Z,12.57
2022-10-09T21:40:10.946Z,12.05
2022-10-09T21:45:13.609Z,12.50
2022-10-09T21:50:15.970Z,11.15
2022-10-09T21:55:18.393Z,11.35
2022-10-09T22:00:21.293Z,11.65
2022-10-09T22:05:23.655Z,11.80
2022-10-09T22:10:26.023Z,11.95
2022-10-09T22:15:28.403Z,11.45
2022-10-09T22:20:30.758Z,10.35
2022-10-09T22:25:34.049Z,10.07
2022-10-09T22:30:36.697Z,12.43
2022-10-09T22:35:39.045Z,12.63
2022-10-09T22:40:46.385Z,13.60
2022-10-09T22:45:49.526Z,11.70
2022-10-09T22:50:51.934Z,12.02
2022-10-09T22:55:54.371Z,12.30
2022-10-09T23:00:56.775Z,12.98
2022-10-09T23:06:13.503Z,13.75
2022-10-09T23:11:17.023Z,12.70
2022-10-09T23:16:19.416Z,12.95
2022-10-09T23:21:23.504Z,13.65
2022-10-09T23:26:28.809Z,15.02
2022-10-09T23:31:31.447Z,15.48
2022-10-09T23:36:34.303Z,14.93
2022-10-09T23:41:36.683Z,14.98
2022-10-09T23:46:39.955Z,16.10
2022-10-09T23:51:42.297Z,16.70
2022-10-09T23:56:44.699Z,15.70
